LFCR

Rodez-Marcillac Airport

Rodez/Marcillac, France
TAF AMD LFCR 221541Z 2215/2312 VRB02KT 9999 OVC013 TEMPO 2215/2220 1200 -SN BKN003 BECMG 2218/2220 29008KT BECMG 2220/2222 3000 BR BKN003 PROB30 TEMPO 2221/2302 0500 FG VV/// BECMG 2300/2302 VRB02KT PROB30 TEMPO 2302/2307 2000 -SN OVC002 BECMG 2305/2307 25007KT TEMPO 2307/2309 1200 -SN OVC002 BECMG 2310/2312 32012KT
Issued Valid From Valid To
Jan-22 @ 15:41 UTC
(an hour ago)
Jan-22 @ 15:00 UTC
(2 hours ago)
Jan-23 @ 12:00 UTC
(in 19 hours)
Jan-22 @ 15:00 to Jan-22 @ 18:00
TAF AMD LFCR 221541Z 2215/2312 VRB02KT 9999 OVC013
Wind Visibility Clouds
Variable at 2 knots 10,000+ meters
  • Overcast at 1,300' AGL
Temporary Jan-22 @ 15:00 to Jan-22 @ 20:00
TEMPO 2215/2220 1200 -SN BKN003
Visibility Clouds Conditions
1,207 meters
  • Broken at 300' AGL
  • Light Snow
Becoming Jan-22 @ 18:00 to Jan-22 @ 20:00
BECMG 2218/2220 29008KT
Wind Visibility Clouds
290° at 8 knots 10,000+ meters
  • Overcast at 1,300' AGL
Becoming Jan-22 @ 20:00 to Jan-23 @ 00:00
BECMG 2220/2222 3000 BR BKN003
Wind Visibility Clouds Conditions
290° at 8 knots 2,993 meters
  • Broken at 300' AGL
  • Mist
Temporary  (Probability 30%) Jan-22 @ 21:00 to Jan-23 @ 02:00
PROB30 TEMPO 2221/2302 0500 FG VV///
Visibility Conditions
499 meters
  • Fog
Becoming Jan-23 @ 00:00 to Jan-23 @ 05:00
BECMG 2300/2302 VRB02KT
Wind Visibility Clouds Conditions
Variable at 2 knots 2,993 meters
  • Broken at 300' AGL
  • Mist
Temporary  (Probability 30%) Jan-23 @ 02:00 to Jan-23 @ 07:00
PROB30 TEMPO 2302/2307 2000 -SN OVC002
Visibility Clouds Conditions
1,996 meters
  • Overcast at 200' AGL
  • Light Snow
Becoming Jan-23 @ 05:00 to Jan-23 @ 10:00
BECMG 2305/2307 25007KT
Wind Visibility Clouds Conditions
250° at 7 knots 2,993 meters
  • Broken at 300' AGL
  • Mist
Temporary Jan-23 @ 07:00 to Jan-23 @ 09:00
TEMPO 2307/2309 1200 -SN OVC002
Visibility Clouds Conditions
1,207 meters
  • Overcast at 200' AGL
  • Light Snow
Becoming Jan-23 @ 10:00 to Jan-23 @ 12:00
BECMG 2310/2312 32012KT
Wind Visibility Clouds Conditions
320° at 12 knots 2,993 meters
  • Broken at 300' AGL
  • Mist
TAF AMD LFCR 221541Z 2215/2312 VRB02KT 9999 OVC013 TEMPO 2215/2220 1200 -SN BKN003 BECMG 2218/2220 29008KT BECMG 2220/2222 3000 BR BKN003 PROB30 TEMPO 2221/2302 0500 FG VV/// BECMG 2300/2302 VRB02KT PROB30 TEMPO 2302/2307 2000 -SN OVC002 BECMG 2305/2307 25007KT TEMPO 2307/2309 1200 -SN OVC002 BECMG 2310/2312 32012KT
Issued Jan-22 @ 15:41 UTC
(an hour ago)
Valid From Jan-22 @ 15:00 UTC
(2 hours ago)
Valid To Jan-23 @ 12:00 UTC
(in 19 hours)
Jan-22 @ 15:00 - Jan-22 @ 18:00
Wind Visibility
Variable at 2 knots 10,000+ meters
Clouds
  • Overcast at 1,300' AGL
Temporary Jan-22 @ 15:00 - Jan-22 @ 20:00
Clouds
  • Broken at 300' AGL
Conditions
  • Light Snow
Becoming Jan-22 @ 18:00 - Jan-22 @ 20:00
Wind Visibility
290° at 8 knots 10,000+ meters
Clouds
  • Overcast at 1,300' AGL
Becoming Jan-22 @ 20:00 - Jan-23 @ 00:00
Wind Visibility
290° at 8 knots 2,993 meters
Clouds
  • Broken at 300' AGL
Conditions
  • Mist
Probability 30% Temporary Jan-22 @ 21:00 - Jan-23 @ 02:00
Conditions
  • Fog
Becoming Jan-23 @ 00:00 - Jan-23 @ 05:00
Wind Visibility
Variable at 2 knots 2,993 meters
Clouds
  • Broken at 300' AGL
Conditions
  • Mist
Probability 30% Temporary Jan-23 @ 02:00 - Jan-23 @ 07:00
Clouds
  • Overcast at 200' AGL
Conditions
  • Light Snow
Becoming Jan-23 @ 05:00 - Jan-23 @ 10:00
Wind Visibility
250° at 7 knots 2,993 meters
Clouds
  • Broken at 300' AGL
Conditions
  • Mist
Temporary Jan-23 @ 07:00 - Jan-23 @ 09:00
Clouds
  • Overcast at 200' AGL
Conditions
  • Light Snow
Becoming Jan-23 @ 10:00 - Jan-23 @ 12:00
Wind Visibility
320° at 12 knots 2,993 meters
Clouds
  • Broken at 300' AGL
Conditions
  • Mist